Terminal Aerodrome Forecast
Issued by NWS

Home | Current Version | Previous Version | Text Only | Print | Product List | Glossary On
Versions: 1 2 3 4 5 6 7 8 9 10 11 12 13 14 15 16 17 18 19 20 21 22 23
000
FTUS44 KSJT 210500
TAFJCT
TAF
KJCT 210532Z 2106/2206 VRB06KT P6SM SKC
     FM211200 15006KT P6SM BKN015
     FM211600 18014G20KT P6SM SCT020
     FM220000 14012KT P6SM SKC=

USA.gov is the U.S. government's official web portal to all federal, state and local government web resources and services.